Time;durP1;ratioP1;P1;durP2;ratioP2;P2;SDS_P1;SDS_P2;PMS_P1;PMS_P2;Temp;Humidity;BMP_temperature;BMP_pressure;BME280_temperature;BME280_humidity;BME280_pressure;Samples;Min_cycle;Max_cycle;Signal;HPM_P1;HPM_P2
2024/01/13 00:01:46;;;;;;;1999.90;999.90;;;3.50;99.90;;;;;;5081731;28;20437;-66
2024/01/13 00:04:13;;;;;;;1999.90;999.90;;;3.40;99.90;;;;;;5083100;28;20434;-66
2024/01/13 00:06:39;;;;;;;1999.90;999.90;;;3.40;99.90;;;;;;5092124;28;20428;-66
2024/01/13 00:09:06;;;;;;;1999.90;999.90;;;3.40;99.90;;;;;;5081887;28;20885;-66
2024/01/13 00:11:33;;;;;;;1999.90;999.90;;;3.30;99.90;;;;;;5085851;28;20432;-65
2024/01/13 00:14:00;;;;;;;1999.90;999.90;;;3.30;99.90;;;;;;5085097;28;20925;-65
2024/01/13 00:16:26;;;;;;;1999.90;999.90;;;3.20;99.90;;;;;;5073164;28;20893;-66
2024/01/13 00:18:54;;;;;;;1999.90;999.90;;;3.20;99.90;;;;;;5088492;28;20410;-65
2024/01/13 00:21:21;;;;;;;1999.90;999.90;;;3.20;99.90;;;;;;5093640;28;20406;-66
2024/01/13 00:23:48;;;;;;;1999.90;999.90;;;3.20;99.90;;;;;;5087037;28;20450;-66
2024/01/13 00:26:15;;;;;;;1999.90;999.90;;;3.20;99.90;;;;;;5075803;28;20469;-66
2024/01/13 00:28:41;;;;;;;1999.90;999.90;;;3.30;99.90;;;;;;5077814;28;20439;-64
2024/01/13 00:31:08;;;;;;;1999.90;999.90;;;3.30;99.90;;;;;;5072674;28;20412;-66
2024/01/13 00:33:35;;;;;;;1999.90;999.90;;;3.30;99.90;;;;;;5085449;28;20912;-66
2024/01/13 00:36:04;;;;;;;1999.90;999.90;;;3.30;99.90;;;;;;5093581;28;20413;-65
2024/01/13 00:38:30;;;;;;;1999.90;999.90;;;3.30;99.90;;;;;;5087562;28;20423;-66
2024/01/13 00:40:57;;;;;;;1999.90;999.90;;;3.30;99.90;;;;;;5072723;28;20407;-66
2024/01/13 00:43:23;;;;;;;1999.90;999.90;;;3.30;99.90;;;;;;5083450;28;20402;-66
2024/01/13 00:45:50;;;;;;;1999.90;999.90;;;3.30;99.90;;;;;;5093179;28;20422;-66
2024/01/13 00:48:17;;;;;;;1999.90;999.90;;;3.30;99.90;;;;;;5089293;28;20424;-66
2024/01/13 00:50:43;;;;;;;1999.90;999.90;;;3.20;99.90;;;;;;5072617;28;20421;-66
2024/01/13 00:53:11;;;;;;;1999.90;999.90;;;3.20;99.90;;;;;;5081338;28;20433;-66
2024/01/13 00:55:38;;;;;;;1999.90;999.90;;;3.20;99.90;;;;;;5091943;28;20482;-66
2024/01/13 00:58:05;;;;;;;1999.90;999.90;;;3.10;99.90;;;;;;5089256;28;20488;-66
2024/01/13 01:00:32;;;;;;;1999.90;999.90;;;3.10;99.90;;;;;;5069626;28;20857;-66
2024/01/13 01:02:58;;;;;;;1999.90;999.90;;;3.10;99.90;;;;;;5077821;28;20410;-66
2024/01/13 01:05:25;;;;;;;1999.90;999.90;;;3.10;99.90;;;;;;5090799;28;20405;-67
2024/01/13 01:07:51;;;;;;;1999.90;999.90;;;3.10;99.90;;;;;;5086741;28;20406;-66
2024/01/13 01:10:19;;;;;;;1999.90;999.90;;;3.20;99.90;;;;;;5071617;28;20427;-67
2024/01/13 01:12:46;;;;;;;1999.90;999.90;;;3.20;99.90;;;;;;5081022;28;20429;-68
2024/01/13 01:15:13;;;;;;;1999.90;999.90;;;3.20;99.90;;;;;;5092874;28;20406;-66
2024/01/13 01:17:40;;;;;;;1999.90;999.90;;;3.10;99.90;;;;;;5092371;28;20413;-66
2024/01/13 01:20:07;;;;;;;1999.90;999.90;;;3.20;99.90;;;;;;5073448;28;20435;-66
2024/01/13 01:22:34;;;;;;;1999.90;999.90;;;3.10;99.90;;;;;;5076185;28;20410;-66
2024/01/13 01:25:01;;;;;;;1999.90;999.90;;;3.10;99.90;;;;;;5092566;28;20406;-66
2024/01/13 01:27:29;;;;;;;1999.90;999.90;;;3.10;99.90;;;;;;5083046;28;20412;-66
2024/01/13 01:29:55;;;;;;;1999.90;999.90;;;3.20;99.90;;;;;;5070842;28;20432;-66
2024/01/13 01:32:22;;;;;;;1999.90;999.90;;;3.30;99.90;;;;;;5073841;28;20494;-66
2024/01/13 01:34:49;;;;;;;1999.90;999.90;;;3.30;99.90;;;;;;5086070;28;20413;-66
2024/01/13 01:37:15;;;;;;;1999.90;999.90;;;3.30;99.90;;;;;;5077080;28;20456;-66
2024/01/13 01:39:42;;;;;;;1999.90;999.90;;;3.30;99.90;;;;;;5076771;28;20427;-65
2024/01/13 01:42:09;;;;;;;1999.90;999.90;;;3.20;99.90;;;;;;5072192;28;20415;-66
2024/01/13 01:44:37;;;;;;;1999.90;999.90;;;3.30;99.90;;;;;;5091873;28;20432;-66
2024/01/13 01:47:05;;;;;;;1999.90;999.90;;;3.30;99.90;;;;;;5092015;28;20414;-66
2024/01/13 01:49:32;;;;;;;1999.90;999.90;;;3.30;99.90;;;;;;5078587;28;20434;-66
2024/01/13 01:51:59;;;;;;;1999.90;999.90;;;3.30;99.90;;;;;;5071635;28;20508;-67
2024/01/13 01:54:26;;;;;;;1999.90;999.90;;;3.30;99.90;;;;;;5090917;28;20454;-67
2024/01/13 01:56:52;;;;;;;1999.90;999.90;;;3.30;99.90;;;;;;5086783;28;20442;-66
2024/01/13 01:59:19;;;;;;;1999.90;999.90;;;3.30;99.90;;;;;;5080167;28;20408;-66
2024/01/13 02:01:48;;;;;;;1999.90;999.90;;;3.30;99.90;;;;;;5082710;28;20407;-66
2024/01/13 02:04:15;;;;;;;1999.90;999.90;;;3.30;99.90;;;;;;5089509;28;20780;-65
2024/01/13 02:06:42;;;;;;;1999.90;999.90;;;3.40;99.90;;;;;;5089230;28;20823;-66
2024/01/13 02:09:08;;;;;;;1999.90;999.90;;;3.40;99.90;;;;;;5076078;28;20407;-65
2024/01/13 02:11:35;;;;;;;1999.90;999.90;;;3.40;99.90;;;;;;5083629;28;20410;-65
2024/01/13 02:14:02;;;;;;;1999.90;999.90;;;3.40;99.90;;;;;;5091166;28;20421;-67
2024/01/13 02:16:28;;;;;;;1999.90;999.90;;;3.40;99.90;;;;;;5091188;28;20413;-65
2024/01/13 02:18:56;;;;;;;1999.90;999.90;;;3.40;99.90;;;;;;5070225;28;21016;-66
2024/01/13 02:21:23;;;;;;;1999.90;999.90;;;3.50;99.90;;;;;;5090147;28;20401;-66
2024/01/13 02:23:51;;;;;;;1999.90;999.90;;;3.50;99.90;;;;;;5088984;28;20463;-66
2024/01/13 02:26:18;;;;;;;1999.90;999.90;;;3.50;99.90;;;;;;5091114;28;20463;-64
2024/01/13 02:28:44;;;;;;;1999.90;999.90;;;3.60;99.90;;;;;;5071982;28;20428;-66
2024/01/13 02:31:10;;;;;;;1999.90;999.90;;;3.60;99.90;;;;;;5078929;28;20414;-66
2024/01/13 02:33:37;;;;;;;1999.90;999.90;;;3.60;99.90;;;;;;5090989;28;20531;-66
2024/01/13 02:36:04;;;;;;;1999.90;999.90;;;3.50;99.90;;;;;;5081412;28;20469;-65
2024/01/13 02:38:31;;;;;;;1999.90;999.90;;;3.40;99.90;;;;;;5071510;28;20428;-66
2024/01/13 02:40:59;;;;;;;1999.90;999.90;;;3.40;99.90;;;;;;5077693;28;20413;-66
2024/01/13 02:43:25;;;;;;;1999.90;999.90;;;3.50;99.90;;;;;;5090646;28;20776;-65
2024/01/13 02:45:52;;;;;;;1999.90;999.90;;;3.50;99.90;;;;;;5091045;28;20410;-66
2024/01/13 02:48:21;;;;;;;1999.90;999.90;;;3.60;99.90;;;;;;5073966;28;20439;-66
2024/01/13 02:50:54;;;;;;;1999.90;999.90;;;3.50;99.90;;;;;;5069418;28;20431;-66
2024/01/13 02:53:20;;;;;;;1999.90;999.90;;;3.50;99.90;;;;;;5072078;28;20450;-65
2024/01/13 02:55:47;;;;;;;1999.90;999.90;;;3.50;99.90;;;;;;5083490;28;20464;-66
2024/01/13 02:58:15;;;;;;;1999.90;999.90;;;3.50;99.90;;;;;;5072621;28;20431;-62
2024/01/13 03:00:42;;;;;;;1999.90;999.90;;;3.50;99.90;;;;;;5073813;28;20421;-66
2024/01/13 03:03:09;;;;;;;1999.90;999.90;;;3.40;99.90;;;;;;5089382;28;20402;-66
2024/01/13 03:05:35;;;;;;;1999.90;999.90;;;3.40;99.90;;;;;;5090464;28;20410;-62
2024/01/13 03:08:02;;;;;;;1999.90;999.90;;;3.40;99.90;;;;;;5076419;28;20522;-65
2024/01/13 03:10:31;;;;;;;1999.90;999.90;;;3.40;99.90;;;;;;5069191;28;20427;-66
2024/01/13 03:12:57;;;;;;;1999.90;999.90;;;3.50;99.90;;;;;;5076883;28;20413;-65
2024/01/13 03:15:25;;;;;;;1999.90;999.90;;;3.50;99.90;;;;;;5090495;28;20406;-66
2024/01/13 03:17:52;;;;;;;1999.90;999.90;;;3.50;99.90;;;;;;5078276;28;20432;-65
2024/01/13 03:20:18;;;;;;;1999.90;999.90;;;3.40;99.90;;;;;;5071705;28;20407;-65
2024/01/13 03:22:45;;;;;;;1999.90;999.90;;;3.30;99.90;;;;;;5085030;28;20465;-66
2024/01/13 03:25:12;;;;;;;1999.90;999.90;;;3.20;99.90;;;;;;5078512;28;20953;-66
2024/01/13 03:27:39;;;;;;;1999.90;999.90;;;3.30;99.90;;;;;;5073563;28;20431;-65
2024/01/13 03:30:07;;;;;;;1999.90;999.90;;;3.30;99.90;;;;;;5092442;28;20433;-67
2024/01/13 03:32:35;;;;;;;1999.90;999.90;;;3.30;99.90;;;;;;5108182;28;20419;-66
2024/01/13 03:35:01;;;;;;;1999.90;999.90;;;3.30;99.90;;;;;;5100883;28;20481;-65
2024/01/13 03:37:28;;;;;;;1999.90;999.90;;;3.30;99.90;;;;;;5092551;28;20454;-66
2024/01/13 03:39:55;;;;;;;1999.90;999.90;;;3.30;99.90;;;;;;5070022;28;20910;-66
2024/01/13 03:42:21;;;;;;;1999.90;999.90;;;3.20;99.90;;;;;;5092110;28;20417;-65
2024/01/13 03:44:48;;;;;;;1999.90;999.90;;;3.20;99.90;;;;;;5094403;28;20406;-66
2024/01/13 03:47:15;;;;;;;1999.90;999.90;;;3.20;99.90;;;;;;5088199;28;20505;-65
2024/01/13 03:49:43;;;;;;;1999.90;999.90;;;3.10;99.90;;;;;;5066520;28;20446;-62
2024/01/13 03:52:09;;;;;;;1999.90;999.90;;;3.10;99.90;;;;;;5073511;28;20419;-67
2024/01/13 03:54:36;;;;;;;1999.90;999.90;;;3.10;99.90;;;;;;5085992;28;20509;-65
2024/01/13 03:57:03;;;;;;;1999.90;999.90;;;3.20;99.90;;;;;;5098493;28;20413;-64
2024/01/13 03:59:30;;;;;;;1999.90;999.90;;;3.20;99.90;;;;;;5100797;28;20410;-65
2024/01/13 04:01:56;;;;;;;1999.90;999.90;;;3.20;99.90;;;;;;5084925;28;20431;-66
2024/01/13 04:04:23;;;;;;;1999.90;999.90;;;3.20;99.90;;;;;;5089894;28;20436;-62
2024/01/13 04:06:51;;;;;;;1999.90;999.90;;;3.20;99.90;;;;;;5096849;28;20465;-66
2024/01/13 04:09:18;;;;;;;1999.90;999.90;;;3.10;99.90;;;;;;5094004;28;20417;-66
2024/01/13 04:11:44;;;;;;;1999.90;999.90;;;3.20;99.90;;;;;;5074152;28;20427;-62
2024/01/13 04:14:11;;;;;;;1999.90;999.90;;;3.00;99.90;;;;;;5082234;28;20499;-65
2024/01/13 04:16:38;;;;;;;1999.90;999.90;;;3.00;99.90;;;;;;5093986;28;20410;-66
2024/01/13 04:19:04;;;;;;;1999.90;999.90;;;3.00;99.90;;;;;;5086348;28;20421;-63
2024/01/13 04:21:33;;;;;;;1999.90;999.90;;;3.10;99.90;;;;;;5076991;28;21312;-65
2024/01/13 04:24:01;;;;;;;1999.90;999.90;;;3.00;99.90;;;;;;5073272;28;20407;-66
2024/01/13 04:26:28;;;;;;;1999.90;999.90;;;3.00;99.90;;;;;;5072241;28;20435;-65
2024/01/13 04:28:54;;;;;;;1999.90;999.90;;;3.00;99.90;;;;;;5072304;28;20427;-65
2024/01/13 04:31:21;;;;;;;1999.90;999.90;;;3.00;99.90;;;;;;5072590;28;20418;-66
2024/01/13 04:33:48;;;;;;;1999.90;999.90;;;3.10;99.90;;;;;;5081039;28;20435;-63
2024/01/13 04:36:14;;;;;;;1999.90;999.90;;;3.10;99.90;;;;;;5073008;28;20434;-66
2024/01/13 04:38:41;;;;;;;1999.90;999.90;;;3.10;99.90;;;;;;5081264;28;20410;-65
2024/01/13 04:41:09;;;;;;;1999.90;999.90;;;3.10;99.90;;;;;;5097450;28;20410;-62
2024/01/13 04:43:37;;;;;;;1999.90;999.90;;;3.00;99.90;;;;;;5092986;28;20813;-66
2024/01/13 04:46:04;;;;;;;1999.90;999.90;;;2.90;99.90;;;;;;5086204;28;20423;-66
2024/01/13 04:48:31;;;;;;;1999.90;999.90;;;2.90;99.90;;;;;;5072825;28;20404;-65
2024/01/13 04:50:58;;;;;;;1999.90;999.90;;;2.90;99.90;;;;;;5079503;28;20410;-66
2024/01/13 04:53:24;;;;;;;1999.90;999.90;;;2.90;99.90;;;;;;5092092;28;20420;-66
2024/01/13 04:55:52;;;;;;;1999.90;999.90;;;2.90;99.90;;;;;;5093151;28;20480;-64
2024/01/13 04:58:20;;;;;;;1999.90;999.90;;;2.90;99.90;;;;;;5086836;28;20431;-66
2024/01/13 05:00:46;;;;;;;1999.90;999.90;;;2.90;99.90;;;;;;5076293;28;20411;-64
2024/01/13 05:03:13;;;;;;;1999.90;999.90;;;2.90;99.90;;;;;;5081971;28;20432;-65
2024/01/13 05:05:40;;;;;;;1999.90;999.90;;;2.90;99.90;;;;;;5095669;28;20407;-67
2024/01/13 05:08:06;;;;;;;1999.90;999.90;;;2.80;99.90;;;;;;5075631;28;20505;-66
2024/01/13 05:10:33;;;;;;;1999.90;999.90;;;2.80;99.90;;;;;;5084374;28;20451;-65
2024/01/13 05:13:00;;;;;;;1999.90;999.90;;;2.90;99.90;;;;;;5075902;28;20436;-65
2024/01/13 05:15:28;;;;;;;1999.90;999.90;;;2.80;99.90;;;;;;5072363;28;20423;-66
2024/01/13 05:17:54;;;;;;;1999.90;999.90;;;2.80;99.90;;;;;;5087148;28;20463;-65
2024/01/13 05:20:21;;;;;;;1999.90;999.90;;;2.80;99.90;;;;;;5092455;28;20465;-66
2024/01/13 05:22:48;;;;;;;1999.90;999.90;;;2.90;99.90;;;;;;5084720;28;20434;-65
2024/01/13 05:25:15;;;;;;;1999.90;999.90;;;2.90;99.90;;;;;;5071959;28;20433;-62
2024/01/13 05:27:42;;;;;;;1999.90;999.90;;;2.90;99.90;;;;;;5085297;28;20410;-65
2024/01/13 05:30:10;;;;;;;1999.90;999.90;;;2.90;99.90;;;;;;5091956;28;20806;-66
2024/01/13 05:32:39;;;;;;;1999.90;999.90;;;2.90;99.90;;;;;;5086145;28;20462;-65
2024/01/13 05:35:07;;;;;;;1999.90;999.90;;;2.90;99.90;;;;;;5071860;28;20427;-66
2024/01/13 05:37:34;;;;;;;1999.90;999.90;;;3.00;99.90;;;;;;5075957;28;20418;-65
2024/01/13 05:40:00;;;;;;;1999.90;999.90;;;2.90;99.90;;;;;;5091962;28;20483;-65
2024/01/13 05:42:27;;;;;;;1999.90;999.90;;;2.80;99.90;;;;;;5074506;28;20435;-67
2024/01/13 05:44:54;;;;;;;1999.90;999.90;;;2.90;99.90;;;;;;5070625;28;20411;-66
2024/01/13 05:47:20;;;;;;;1999.90;999.90;;;2.90;99.90;;;;;;5082063;28;20410;-66
2024/01/13 05:49:49;;;;;;;1999.90;999.90;;;2.90;99.90;;;;;;5091940;28;20414;-66
2024/01/13 05:52:15;;;;;;;1999.90;999.90;;;2.90;99.90;;;;;;5080289;28;20428;-65
2024/01/13 05:54:42;;;;;;;1999.90;999.90;;;3.00;99.90;;;;;;5071318;28;20435;-65
2024/01/13 05:57:09;;;;;;;1999.90;999.90;;;2.90;99.90;;;;;;5088386;28;20436;-65
2024/01/13 05:59:35;;;;;;;1999.90;999.90;;;2.80;99.90;;;;;;5091631;28;20459;-65
2024/01/13 06:02:02;;;;;;;1999.90;999.90;;;2.80;99.90;;;;;;5082164;28;20435;-66
2024/01/13 06:04:29;;;;;;;1999.90;999.90;;;2.90;99.90;;;;;;5071174;28;20408;-65
2024/01/13 06:06:57;;;;;;;1999.90;999.90;;;3.00;99.90;;;;;;5086739;28;20409;-66
2024/01/13 06:09:23;;;;;;;1999.90;999.90;;;2.90;99.90;;;;;;5085945;28;20501;-65
2024/01/13 06:11:50;;;;;;;1999.90;999.90;;;2.90;99.90;;;;;;5083503;28;20440;-65
2024/01/13 06:14:17;;;;;;;1999.90;999.90;;;3.00;99.90;;;;;;5070753;28;20423;-65
2024/01/13 06:16:43;;;;;;;1999.90;999.90;;;3.00;99.90;;;;;;5082103;28;20421;-65
2024/01/13 06:19:10;;;;;;;1999.90;999.90;;;3.00;99.90;;;;;;5088204;28;20459;-65
2024/01/13 06:21:42;;;;;;;1999.90;999.90;;;3.00;99.90;;;;;;5084233;28;20438;-66
2024/01/13 06:24:10;;;;;;;1999.90;999.90;;;2.90;99.90;;;;;;5070171;28;21015;-66
2024/01/13 06:26:38;;;;;;;1999.90;999.90;;;2.90;99.90;;;;;;5083356;28;20410;-62
2024/01/13 06:29:05;;;;;;;1999.90;999.90;;;2.90;99.90;;;;;;5090995;28;20850;-67
2024/01/13 06:31:32;;;;;;;1999.90;999.90;;;2.90;99.90;;;;;;5086038;28;20428;-65
2024/01/13 06:33:59;;;;;;;1999.90;999.90;;;2.90;99.90;;;;;;5071683;28;20411;-62
2024/01/13 06:36:25;;;;;;;1999.90;999.90;;;2.90;99.90;;;;;;5081450;28;20906;-66
2024/01/13 06:38:52;;;;;;;1999.90;999.90;;;2.90;99.90;;;;;;5090954;28;20417;-66
2024/01/13 06:41:20;;;;;;;1999.90;999.90;;;2.90;99.90;;;;;;5087160;28;20409;-63
2024/01/13 06:43:47;;;;;;;1999.90;999.90;;;2.90;99.90;;;;;;5072057;28;20411;-66
2024/01/13 06:46:14;;;;;;;1999.90;999.90;;;2.90;99.90;;;;;;5079706;28;20404;-65
2024/01/13 06:48:40;;;;;;;1999.90;999.90;;;2.80;99.90;;;;;;5090582;28;20776;-63
2024/01/13 06:51:07;;;;;;;1999.90;999.90;;;2.90;99.90;;;;;;5083798;28;20958;-63
2024/01/13 06:53:34;;;;;;;1999.90;999.90;;;2.90;99.90;;;;;;5069406;28;20411;-65
2024/01/13 06:56:00;;;;;;;1999.90;999.90;;;2.90;99.90;;;;;;5085954;28;20483;-65
2024/01/13 06:58:28;;;;;;;1999.90;999.90;;;2.90;99.90;;;;;;5090548;28;20410;-66
2024/01/13 07:00:55;;;;;;;1999.90;999.90;;;2.90;99.90;;;;;;5090229;28;20410;-66
2024/01/13 07:03:22;;;;;;;1999.90;999.90;;;2.90;99.90;;;;;;5068544;28;20439;-63
2024/01/13 07:05:48;;;;;;;1999.90;999.90;;;2.90;99.90;;;;;;5064939;28;20420;-66
2024/01/13 07:08:15;;;;;;;1999.90;999.90;;;2.90;99.90;;;;;;5070018;28;20408;-65
2024/01/13 07:10:42;;;;;;;1999.90;999.90;;;2.90;99.90;;;;;;5074401;28;20410;-65
2024/01/13 07:13:08;;;;;;;1999.90;999.90;;;2.90;99.90;;;;;;5071942;28;20431;-65
2024/01/13 07:15:36;;;;;;;1999.90;999.90;;;2.90;99.90;;;;;;5073421;28;20425;-66
2024/01/13 07:18:04;;;;;;;1999.90;999.90;;;2.90;99.90;;;;;;5090279;28;20899;-66
2024/01/13 07:20:30;;;;;;;1999.90;999.90;;;2.90;99.90;;;;;;5101498;28;20405;-67
2024/01/13 07:22:57;;;;;;;1999.90;999.90;;;3.00;99.90;;;;;;5075235;28;20469;-66
2024/01/13 07:25:25;;;;;;;1999.90;999.90;;;3.00;99.90;;;;;;5072235;28;20455;-65
2024/01/13 07:27:52;;;;;;;1999.90;999.90;;;3.00;99.90;;;;;;5090107;28;20765;-66
2024/01/13 07:30:18;;;;;;;1999.90;999.90;;;2.90;99.90;;;;;;5090011;28;20463;-65
2024/01/13 07:32:46;;;;;;;1999.90;999.90;;;2.90;99.90;;;;;;5077412;28;20925;-66
2024/01/13 07:35:13;;;;;;;1999.90;999.90;;;2.90;99.90;;;;;;5070228;28;20427;-66
2024/01/13 07:37:40;;;;;;;1999.90;999.90;;;3.00;99.90;;;;;;5086403;28;20423;-64
2024/01/13 07:40:08;;;;;;;1999.90;999.90;;;3.00;99.90;;;;;;5090023;28;20416;-65
2024/01/13 07:42:34;;;;;;;1999.90;999.90;;;3.00;99.90;;;;;;5077343;28;20430;-66
2024/01/13 07:45:01;;;;;;;1999.90;999.90;;;3.10;99.90;;;;;;5071207;28;20402;-66
2024/01/13 07:47:28;;;;;;;1999.90;999.90;;;3.00;99.90;;;;;;5090163;28;20510;-64
2024/01/13 07:49:56;;;;;;;1999.90;999.90;;;3.10;99.90;;;;;;5089909;28;20410;-62
2024/01/13 07:52:22;;;;;;;1999.90;999.90;;;3.10;99.90;;;;;;5078087;28;20432;-63
2024/01/13 07:54:49;;;;;;;1999.90;999.90;;;3.10;99.90;;;;;;5072079;28;20431;-62
2024/01/13 07:57:16;;;;;;;1999.90;999.90;;;3.10;99.90;;;;;;5087666;28;20410;-64
2024/01/13 07:59:42;;;;;;;1999.90;999.90;;;3.10;99.90;;;;;;5090031;28;20410;-65
2024/01/13 08:02:09;;;;;;;1999.90;999.90;;;3.10;99.90;;;;;;5081051;28;20435;-63
2024/01/13 08:04:36;;;;;;;1999.90;999.90;;;3.10;99.90;;;;;;5067466;28;20402;-65
2024/01/13 08:07:05;;;;;;;1999.90;999.90;;;3.20;99.90;;;;;;5090092;28;20406;-67
2024/01/13 08:09:32;;;;;;;1999.90;999.90;;;3.10;99.90;;;;;;5089658;28;20923;-61
2024/01/13 08:11:59;;;;;;;1999.90;999.90;;;3.20;99.90;;;;;;5083175;28;20531;-66
2024/01/13 08:14:25;;;;;;;1999.90;999.90;;;3.20;99.90;;;;;;5072109;28;20424;-65
2024/01/13 08:16:52;;;;;;;1999.90;999.90;;;3.20;99.90;;;;;;5075372;28;20413;-61
2024/01/13 08:19:19;;;;;;;1999.90;999.90;;;3.20;99.90;;;;;;5089831;28;20414;-65
2024/01/13 08:21:45;;;;;;;1999.90;999.90;;;3.20;99.90;;;;;;5085359;28;20448;-67
2024/01/13 08:24:13;;;;;;;1999.90;999.90;;;3.30;99.90;;;;;;5072246;28;20415;-63
2024/01/13 08:26:40;;;;;;;1999.90;999.90;;;3.20;99.90;;;;;;5069436;28;20792;-64
2024/01/13 08:29:07;;;;;;;1999.90;999.90;;;3.30;99.90;;;;;;5075730;28;20893;-65
2024/01/13 08:31:33;;;;;;;1999.90;999.90;;;3.30;99.90;;;;;;5075569;28;20889;-65
2024/01/13 08:34:00;;;;;;;1999.90;999.90;;;3.40;99.90;;;;;;5074195;28;20458;-64
2024/01/13 08:36:27;;;;;;;1999.90;999.90;;;3.50;99.90;;;;;;5078056;28;20439;-64
2024/01/13 08:38:53;;;;;;;1999.90;999.90;;;3.60;99.90;;;;;;5074801;28;20432;-65
2024/01/13 08:41:21;;;;;;;1999.90;999.90;;;3.60;99.90;;;;;;5072829;28;20411;-64
2024/01/13 08:43:48;;;;;;;1999.90;999.90;;;3.80;99.90;;;;;;5092918;28;20410;-65
2024/01/13 08:46:15;;;;;;;1999.90;999.90;;;3.80;99.90;;;;;;5086069;28;20458;-65
2024/01/13 08:48:42;;;;;;;1999.90;999.90;;;3.70;99.90;;;;;;5077494;28;20410;-65
2024/01/13 08:51:09;;;;;;;1999.90;999.90;;;3.70;99.90;;;;;;5081202;28;20406;-65
2024/01/13 08:53:35;;;;;;;1999.90;999.90;;;3.80;99.90;;;;;;5092418;28;20839;-64
2024/01/13 08:56:02;;;;;;;1999.90;999.90;;;3.80;99.90;;;;;;5088602;28;20443;-64
2024/01/13 08:58:30;;;;;;;1999.90;999.90;;;3.90;99.90;;;;;;5070190;28;20416;-66
2024/01/13 09:00:57;;;;;;;1999.90;999.90;;;3.90;99.90;;;;;;5087729;28;20492;-66
2024/01/13 09:03:25;;;;;;;1999.90;999.90;;;4.10;99.90;;;;;;5087288;28;20440;-64
2024/01/13 09:05:52;;;;;;;1999.90;999.90;;;4.10;99.90;;;;;;5070527;28;20477;-66
2024/01/13 09:08:19;;;;;;;1999.90;999.90;;;4.20;99.90;;;;;;5075619;28;20491;-64
2024/01/13 09:10:45;;;;;;;1999.90;999.90;;;4.10;99.90;;;;;;5078968;28;20891;-66
2024/01/13 09:13:12;;;;;;;1999.90;999.90;;;4.10;99.90;;;;;;5072259;28;20796;-65
2024/01/13 09:15:40;;;;;;;1999.90;999.90;;;4.10;99.90;;;;;;5090653;28;20423;-65
2024/01/13 09:18:08;;;;;;;1999.90;999.90;;;4.20;99.90;;;;;;5093451;28;20488;-63
2024/01/13 09:20:35;;;;;;;1999.90;999.90;;;4.20;99.90;;;;;;5084800;28;20420;-64
2024/01/13 09:23:02;;;;;;;1999.90;999.90;;;4.30;99.90;;;;;;5086594;28;20430;-60
2024/01/13 09:25:29;;;;;;;1999.90;999.90;;;4.40;99.90;;;;;;5079260;28;20920;-64
2024/01/13 09:27:56;;;;;;;1999.90;999.90;;;4.30;99.90;;;;;;5075183;28;21138;-63
2024/01/13 09:30:23;;;;;;;1999.90;999.90;;;4.20;99.90;;;;;;5082282;28;20418;-61
2024/01/13 09:32:51;;;;;;;1999.90;999.90;;;4.00;99.90;;;;;;5075630;28;20502;-64
2024/01/13 09:35:18;;;;;;;1999.90;999.90;;;3.90;99.90;;;;;;5076062;28;20940;-63
2024/01/13 09:37:45;;;;;;;1999.90;999.90;;;3.90;99.90;;;;;;5068898;28;20435;-61
2024/01/13 09:40:12;;;;;;;1999.90;999.90;;;3.90;99.90;;;;;;5066949;28;20413;-65
2024/01/13 09:42:49;;;;;;;1999.90;999.90;;;4.20;99.90;;;;;;5068987;28;20427;-63
2024/01/13 09:45:15;;;;;;;1999.90;999.90;;;3.90;99.90;;;;;;5072511;28;20426;-64
2024/01/13 09:47:44;;;;;;;1999.90;999.90;;;3.90;99.90;;;;;;5084932;28;20429;-64
2024/01/13 09:50:13;;;;;;;1999.90;999.90;;;3.90;99.90;;;;;;5092030;28;20405;-64
2024/01/13 09:52:41;;;;;;;1999.90;999.90;;;3.80;99.90;;;;;;5073196;28;20436;-63
2024/01/13 09:55:10;;;;;;;1999.90;999.90;;;3.80;99.90;;;;;;5072112;28;20473;-64
2024/01/13 09:57:37;;;;;;;1999.90;999.90;;;3.70;99.90;;;;;;5084028;28;20414;-64
2024/01/13 10:00:04;;;;;;;1999.90;999.90;;;3.70;99.90;;;;;;5089763;28;20411;-66
2024/01/13 10:02:31;;;;;;;1999.90;999.90;;;3.80;99.90;;;;;;5087112;28;20435;-64
2024/01/13 10:04:58;;;;;;;1999.90;999.90;;;3.90;99.90;;;;;;5078335;28;20410;-64
2024/01/13 10:07:27;;;;;;;1999.90;999.90;;;4.10;99.90;;;;;;5071116;28;20427;-64
2024/01/13 10:09:54;;;;;;;1999.90;999.90;;;4.10;99.90;;;;;;5082259;28;20445;-64
2024/01/13 10:12:22;;;;;;;1999.90;999.90;;;4.10;99.90;;;;;;5084547;28;20427;-64
2024/01/13 10:14:49;;;;;;;1999.90;999.90;;;4.10;99.90;;;;;;5070866;28;20415;-64
2024/01/13 10:17:16;;;;;;;1999.90;999.90;;;4.00;99.90;;;;;;5080201;28;20423;-63
2024/01/13 10:19:43;;;;;;;1999.90;999.90;;;4.10;99.90;;;;;;5073048;28;20910;-63
2024/01/13 10:22:10;;;;;;;1999.90;999.90;;;4.00;99.90;;;;;;5079573;28;20414;-65
2024/01/13 10:24:38;;;;;;;1999.90;999.90;;;4.00;99.90;;;;;;5091401;28;20406;-65
2024/01/13 10:27:08;;;;;;;1999.90;999.90;;;4.00;99.90;;;;;;5083626;28;20501;-60
2024/01/13 10:29:36;;;;;;;1999.90;999.90;;;4.10;99.90;;;;;;5066675;28;20419;-63
2024/01/13 10:32:02;;;;;;;1999.90;999.90;;;3.90;99.90;;;;;;5086882;28;20402;-65
2024/01/13 10:34:29;;;;;;;1999.90;999.90;;;3.90;99.90;;;;;;5090837;28;20456;-64
2024/01/13 10:37:08;;;;;;;1999.90;999.90;;;3.90;99.90;;;;;;5078613;28;20483;-63
2024/01/13 10:39:34;;;;;;;1999.90;999.90;;;3.90;99.90;;;;;;5070712;28;20408;-64
2024/01/13 10:42:07;;;;;;;1999.90;999.90;;;3.90;99.90;;;;;;5086495;28;20410;-64
2024/01/13 10:44:42;;;;;;;1999.90;999.90;;;3.80;99.90;;;;;;5087544;28;20435;-66
2024/01/13 10:47:14;;;;;;;1999.90;999.90;;;3.70;99.90;;;;;;5070263;28;20477;-62
2024/01/13 10:49:42;;;;;;;1999.90;999.90;;;3.70;99.90;;;;;;5069583;28;20486;-60
2024/01/13 10:52:13;;;;;;;1999.90;999.90;;;3.70;99.90;;;;;;5101277;28;20410;-62
2024/01/13 10:54:41;;;;;;;1999.90;999.90;;;3.60;99.90;;;;;;5103620;28;20402;-63
2024/01/13 10:57:11;;;;;;;1999.90;999.90;;;3.70;99.90;;;;;;5088469;28;20437;-63
2024/01/13 10:59:39;;;;;;;1999.90;999.90;;;3.80;99.90;;;;;;5093237;28;20423;-62
2024/01/13 11:02:12;;;;;;;1999.90;999.90;;;3.80;99.90;;;;;;5094597;28;20459;-64
2024/01/13 11:04:41;;;;;;;1999.90;999.90;;;3.90;99.90;;;;;;5085645;28;20431;-64
2024/01/13 11:07:08;;;;;;;1999.90;999.90;;;3.90;99.90;;;;;;5070822;28;20415;-64
2024/01/13 11:09:36;;;;;;;1999.90;999.90;;;3.80;99.90;;;;;;5067742;28;20439;-65
2024/01/13 11:12:09;;;;;;;1999.90;999.90;;;3.90;99.90;;;;;;5076268;28;20410;-64
2024/01/13 11:14:49;;;;;;;1999.90;999.90;;;3.90;99.90;;;;;;5082457;28;20394;-65
2024/01/13 11:17:18;;;;;;;1999.90;999.90;;;3.80;99.90;;;;;;5090847;28;20426;-64
2024/01/13 11:19:45;;;;;;;1999.90;999.90;;;3.90;99.90;;;;;;5069442;28;20436;-63
2024/01/13 11:22:30;;;;;;;1999.90;999.90;;;3.90;99.90;;;;;;5080762;28;20457;-63
2024/01/13 11:24:57;;;;;;;1999.90;999.90;;;4.00;99.90;;;;;;5070334;28;20414;-64
2024/01/13 11:27:24;;;;;;;1999.90;999.90;;;3.90;99.90;;;;;;5080715;28;20414;-64
2024/01/13 11:29:52;;;;;;;1999.90;999.90;;;3.90;99.90;;;;;;5090734;28;20410;-64
2024/01/13 11:32:19;;;;;;;1999.90;999.90;;;4.00;99.90;;;;;;5084269;28;20462;-64
2024/01/13 11:34:47;;;;;;;1999.90;999.90;;;4.20;99.90;;;;;;5073888;28;20419;-64
2024/01/13 11:37:13;;;;;;;1999.90;999.90;;;4.30;99.90;;;;;;5065457;28;20523;-63
2024/01/13 11:39:45;;;;;;;1999.90;999.90;;;4.50;99.90;;;;;;5077886;28;20776;-63
2024/01/13 11:42:12;;;;;;;1999.90;999.90;;;4.60;99.90;;;;;;5080861;28;20443;-61
2024/01/13 11:44:44;;;;;;;1999.90;999.90;;;4.70;99.90;;;;;;5084152;28;20410;-64
2024/01/13 11:47:13;;;;;;;1999.90;999.90;;;4.60;99.90;;;;;;5075764;28;20465;-64
2024/01/13 11:49:43;;;;;;;1999.90;999.90;;;4.70;99.90;;;;;;5083708;28;20406;-65
2024/01/13 11:52:10;;;;;;;1999.90;999.90;;;4.60;99.90;;;;;;5081248;28;20419;-64
2024/01/13 11:54:38;;;;;;;1999.90;999.90;;;4.70;99.90;;;;;;5073072;28;20417;-62
2024/01/13 11:57:08;;;;;;;1999.90;999.90;;;4.70;99.90;;;;;;5077189;28;20427;-64
2024/01/13 11:59:34;;;;;;;1999.90;999.90;;;4.70;99.90;;;;;;5073956;28;20479;-64
2024/01/13 12:02:02;;;;;;;1999.90;999.90;;;4.80;99.90;;;;;;5076300;28;20470;-64
2024/01/13 12:04:31;;;;;;;1999.90;999.90;;;4.90;99.90;;;;;;5087651;28;20439;-65
2024/01/13 12:06:59;;;;;;;1999.90;999.90;;;5.10;99.90;;;;;;5072392;28;20411;-64
2024/01/13 12:09:27;;;;;;;1999.90;999.90;;;5.30;99.90;;;;;;5081329;28;21087;-65